Delfshaven, Netherlands
Current Conditions -  °F | °C
As of 3:55 PM on Monday 22 Dec 2014 (Local Time) from EHRD Reporting Station
Overcast Overcast  
Wind Chill: 54°   Ceiling: 2900
Heat Index: 54°   Visibility: 6mi
Dew Point: 48°   Wind: 29mph
Humidity: 82%   Direction: 240°WSW
Pressure: 29.97"   Gusts: 40mph
Location:  51.9°N, 4.45°E
Report Text: EHRD 221455Z AUTO 24025G35KT 210V280 9999 FEW016 BKN029 OVC03212/09 Q1015 TEMPO 5000 -DZRA BKN012
Loading
Personal Weather Stations






























Interactive Weather Map New forecast layout! Learn more

10-Day Weather Forecast

Advertisements
Track Severe Weather on mobile